Time;durP1;ratioP1;P1;durP2;ratioP2;P2;SDS_P1;SDS_P2;PMS_P1;PMS_P2;Temp;Humidity;BMP_temperature;BMP_pressure;BME280_temperature;BME280_humidity;BME280_pressure;Samples;Min_cycle;Max_cycle;Signal;HPM_P1;HPM_P2
2022/02/17 00:02:25;;;;;;;25.15;11.65;;;;;;;1.43;72.08;98630.44;5130669;27;20062;-49
2022/02/17 00:04:52;;;;;;;27.95;11.65;;;;;;;1.51;71.81;98641.41;5115927;27;20510;-51
2022/02/17 00:07:17;;;;;;;21.25;11.40;;;;;;;1.49;72.18;98638.03;5130981;27;20070;-50
2022/02/17 00:09:43;;;;;;;18.52;9.00;;;;;;;1.41;72.03;98627.06;5111700;27;20074;-56
2022/02/17 00:12:09;;;;;;;17.63;8.10;;;;;;;1.45;72.34;98656.88;5131239;27;20043;-52
2022/02/17 00:14:35;;;;;;;19.95;9.75;;;;;;;1.48;72.17;98631.19;5129460;27;20043;-55
2022/02/17 00:17:00;;;;;;;19.10;9.40;;;;;;;1.40;72.07;98621.94;5131310;27;20035;-54
2022/02/17 00:19:26;;;;;;;26.90;12.57;;;;;;;1.42;72.66;98609.94;5131850;27;20043;-52
2022/02/17 00:21:52;;;;;;;19.73;8.65;;;;;;;1.49;72.12;98609.84;5131403;27;20130;-51
2022/02/17 00:24:18;;;;;;;21.80;10.45;;;;;;;1.44;72.18;98596.28;5131204;28;20035;-49
2022/02/17 00:26:44;;;;;;;24.90;11.73;;;;;;;1.44;72.10;98592.88;5112575;28;20491;-53
2022/02/17 00:29:09;;;;;;;22.75;11.07;;;;;;;1.44;72.58;98582.63;5113141;28;20046;-54
2022/02/17 00:31:35;;;;;;;18.60;8.43;;;;;;;1.37;72.66;98581.00;5096085;27;20131;-50
2022/02/17 00:34:04;;;;;;;25.65;12.57;;;;;;;1.39;72.63;98551.13;5116523;27;20042;-53
2022/02/17 00:36:30;;;;;;;22.20;10.70;;;;;;;1.42;72.49;98557.03;5135566;27;20111;-51
2022/02/17 00:38:57;;;;;;;23.67;11.48;;;;;;;1.49;72.08;98547.53;5117478;27;20071;-49
2022/02/17 00:41:23;;;;;;;21.25;10.02;;;;;;;1.53;71.94;98541.50;5135782;27;20046;-56
2022/02/17 00:43:50;;;;;;;24.95;11.50;;;;;;;1.54;71.64;98528.66;5090837;28;20042;-54
2022/02/17 00:46:15;;;;;;;16.35;9.15;;;;;;;1.60;71.74;98522.59;5131447;27;20073;-51
2022/02/17 00:48:41;;;;;;;23.83;11.40;;;;;;;1.60;71.45;98520.03;5117152;27;20070;-49
2022/02/17 00:51:07;;;;;;;28.45;10.75;;;;;;;1.60;71.67;98512.34;5117127;27;20043;-49
2022/02/17 00:53:33;;;;;;;25.70;11.73;;;;;;;1.64;71.21;98519.09;5096379;28;20040;-54
2022/02/17 00:55:59;;;;;;;20.83;9.05;;;;;;;1.66;71.19;98505.41;5115891;27;20138;-53
2022/02/17 00:58:26;;;;;;;27.25;11.82;;;;;;;1.67;71.13;98496.03;5112188;27;20044;-54
2022/02/17 01:00:52;;;;;;;25.00;10.93;;;;;;;1.70;71.08;98495.94;5114357;27;20100;-51
2022/02/17 01:03:18;;;;;;;29.40;11.32;;;;;;;1.66;71.15;98486.63;5099347;27;20070;-51
2022/02/17 01:05:44;;;;;;;17.77;8.82;;;;;;;1.67;71.27;98478.09;5095603;28;20066;-52
2022/02/17 01:08:10;;;;;;;24.15;11.77;;;;;;;1.68;71.31;98470.34;5126054;27;20058;-51
2022/02/17 01:10:36;;;;;;;26.35;11.18;;;;;;;1.68;71.27;98467.78;5135044;27;20054;-49
2022/02/17 01:13:03;;;;;;;28.42;11.32;;;;;;;1.68;71.38;98466.94;5116411;27;20150;-54
2022/02/17 01:15:30;;;;;;;24.92;10.05;;;;;;;1.67;71.47;98481.47;5080474;28;20054;-48
2022/02/17 01:17:55;;;;;;;25.60;10.05;;;;;;;1.62;71.58;98460.22;5123866;27;20057;-52
2022/02/17 01:20:25;;;;;;;28.05;12.38;;;;;;;1.53;71.59;98439.91;5116002;27;20176;-51
2022/02/17 01:22:51;;;;;;;28.92;13.10;;;;;;;1.64;71.83;98453.34;5134905;27;20039;-49
2022/02/17 01:25:17;;;;;;;30.25;11.75;;;;;;;1.70;71.78;98463.50;5115538;27;20054;-51
2022/02/17 01:27:43;;;;;;;26.58;12.27;;;;;;;1.71;71.63;98441.28;5115793;27;20051;-50
2022/02/17 01:30:10;;;;;;;30.90;13.55;;;;;;;1.78;71.80;98439.47;5114157;27;20125;-53
2022/02/17 01:32:37;;;;;;;30.95;13.73;;;;;;;1.83;71.58;98437.66;5099047;27;20409;-51
2022/02/17 01:35:04;;;;;;;26.33;12.40;;;;;;;1.80;71.29;98424.88;5099868;27;20042;-51
2022/02/17 01:37:30;;;;;;;25.63;9.48;;;;;;;1.80;71.09;98427.44;5132416;27;20107;-48
2022/02/17 01:39:58;;;;;;;26.23;11.90;;;;;;;1.81;71.10;98417.19;5115555;27;20089;-54
2022/02/17 01:42:24;;;;;;;26.40;11.45;;;;;;;1.68;71.12;98392.66;5115382;27;20121;-54
2022/02/17 01:44:52;;;;;;;25.40;11.75;;;;;;;1.75;71.34;98413.88;5114192;27;20088;-54
2022/02/17 01:47:18;;;;;;;22.35;10.13;;;;;;;1.68;71.64;98416.56;5134156;27;20035;-49
2022/02/17 01:49:47;;;;;;;31.45;14.30;;;;;;;1.70;71.54;98402.00;5115583;27;20042;-48
2022/02/17 01:52:13;;;;;;;33.03;13.73;;;;;;;1.74;71.24;98397.66;5115551;27;20063;-50
2022/02/17 01:54:41;;;;;;;29.25;12.20;;;;;;;1.72;71.33;98386.63;5115525;27;20053;-49
2022/02/17 01:57:09;;;;;;;31.67;12.68;;;;;;;1.70;71.58;98376.41;5133532;27;20031;-51
2022/02/17 01:59:37;;;;;;;25.25;12.13;;;;;;;1.58;72.00;98353.59;5148925;27;20113;-53
2022/02/17 02:02:09;;;;;;;28.98;13.90;;;;;;;1.72;71.67;98373.81;5114017;27;20047;-50
2022/02/17 02:04:35;;;;;;;32.03;13.70;;;;;;;1.75;71.81;98355.81;5113959;27;20050;-51
2022/02/17 02:07:06;;;;;;;30.05;13.20;;;;;;;1.77;71.66;98361.75;5115479;27;20107;-53
2022/02/17 02:09:33;;;;;;;31.35;13.75;;;;;;;1.80;71.51;98371.09;5115719;27;20515;-52
2022/02/17 02:12:11;;;;;;;28.73;12.38;;;;;;;1.78;71.91;98378.78;5121762;27;20091;-51
2022/02/17 02:14:59;;;;;;;32.28;12.90;;;;;;;1.81;71.87;98359.97;5115711;27;20047;-49
2022/02/17 02:17:31;;;;;;;32.83;14.75;;;;;;;1.85;71.84;98370.13;5115327;27;20046;-51
2022/02/17 02:19:57;;;;;;;37.60;14.00;;;;;;;1.91;71.67;98359.75;5133988;27;20414;-50
2022/02/17 02:22:27;;;;;;;33.67;14.07;;;;;;;1.93;71.41;98364.84;5115213;27;20061;-51
2022/02/17 02:24:55;;;;;;;32.50;13.23;;;;;;;1.90;71.64;98372.56;5133457;27;20415;-50
2022/02/17 02:27:22;;;;;;;33.28;13.60;;;;;;;1.80;71.55;98374.50;5119293;27;20050;-50
2022/02/17 02:29:48;;;;;;;30.58;12.73;;;;;;;1.78;72.30;98377.97;5081014;27;20038;-50
2022/02/17 02:32:14;;;;;;;25.38;10.85;;;;;;;1.69;72.46;98369.59;5133162;27;20039;-50
2022/02/17 02:34:40;;;;;;;27.50;12.98;;;;;;;1.64;72.57;98361.16;5114621;27;20053;-46
2022/02/17 02:37:09;;;;;;;24.98;11.70;;;;;;;1.59;72.67;98362.09;5114723;27;20510;-53
2022/02/17 02:39:35;;;;;;;22.10;10.07;;;;;;;1.53;72.75;98352.81;5094404;28;20054;-52
2022/02/17 02:42:02;;;;;;;35.78;14.35;;;;;;;1.55;73.19;98345.13;5111341;27;20197;-51
2022/02/17 02:44:31;;;;;;;25.95;11.60;;;;;;;1.49;72.62;98337.56;5112918;27;20035;-50
2022/02/17 02:47:00;;;;;;;26.73;12.38;;;;;;;1.54;73.00;98354.53;5095282;27;20392;-52
2022/02/17 02:49:27;;;;;;;25.38;11.40;;;;;;;1.49;73.21;98365.72;5114558;27;20089;-51
2022/02/17 02:51:54;;;;;;;30.80;12.40;;;;;;;1.24;73.50;98320.13;5097503;27;20060;-52
2022/02/17 02:54:34;;;;;;;26.48;12.00;;;;;;;1.39;73.57;98325.81;5095546;28;20039;-51
2022/02/17 02:57:00;;;;;;;34.45;13.98;;;;;;;1.48;73.56;98328.19;5115905;27;20088;-53
2022/02/17 02:59:25;;;;;;;29.65;12.00;;;;;;;1.45;74.00;98320.56;5114047;27;20418;-50
2022/02/17 03:01:52;;;;;;;24.10;10.10;;;;;;;1.36;74.79;98316.47;5113917;27;20088;-51
2022/02/17 03:04:18;;;;;;;29.17;12.80;;;;;;;1.33;74.77;98310.56;5100149;27;20043;-50
2022/02/17 03:06:44;;;;;;;27.77;11.13;;;;;;;1.33;75.44;98319.09;5092546;28;20043;-52
2022/02/17 03:09:09;;;;;;;30.90;12.63;;;;;;;1.30;75.69;98311.47;5128292;27;20039;-54
2022/02/17 03:11:35;;;;;;;22.13;9.05;;;;;;;1.38;75.73;98311.31;5113217;27;20137;-52
2022/02/17 03:14:03;;;;;;;28.90;11.38;;;;;;;1.38;75.85;98286.56;5129301;27;20043;-49
2022/02/17 03:16:31;;;;;;;29.88;11.57;;;;;;;1.35;75.73;98278.09;5113452;27;20066;-53
2022/02/17 03:18:57;;;;;;;26.00;10.52;;;;;;;1.32;76.17;98278.16;5113358;27;20065;-51
2022/02/17 03:21:23;;;;;;;22.90;10.80;;;;;;;1.23;76.80;98287.72;5113876;27;20047;-48
2022/02/17 03:23:51;;;;;;;24.75;10.10;;;;;;;1.25;77.32;98269.78;5114975;27;20047;-48
2022/02/17 03:26:19;;;;;;;19.73;9.55;;;;;;;1.23;77.21;98269.78;5127173;27;20049;-51
2022/02/17 03:28:51;;;;;;;34.42;11.82;;;;;;;1.28;77.56;98260.31;5111422;27;20034;-53
2022/02/17 03:31:17;;;;;;;35.88;13.07;;;;;;;1.33;77.28;98255.09;5096562;27;20062;-49
2022/02/17 03:33:59;;;;;;;23.63;11.50;;;;;;;1.37;77.25;98248.19;5113378;27;20113;-54
2022/02/17 03:36:26;;;;;;;30.83;12.50;;;;;;;1.43;76.83;98233.53;5096915;27;20042;-54
2022/02/17 03:38:57;;;;;;;27.08;11.48;;;;;;;1.46;76.88;98237.78;5113257;27;20046;-50
2022/02/17 03:41:26;;;;;;;21.42;9.32;;;;;;;1.43;76.97;98227.56;5113629;27;20045;-48
2022/02/17 03:44:04;;;;;;;28.15;10.05;;;;;;;1.35;77.32;98216.66;5094813;27;20120;-54
2022/02/17 03:46:30;;;;;;;21.88;10.23;;;;;;;1.34;78.06;98220.09;5113699;27;20082;-53
2022/02/17 03:48:57;;;;;;;24.23;9.52;;;;;;;1.32;77.96;98209.03;5080748;27;20039;-52
2022/02/17 03:51:23;;;;;;;19.85;8.68;;;;;;;1.26;78.69;98203.16;5130593;27;20111;-54
2022/02/17 03:53:50;;;;;;;21.98;9.77;;;;;;;1.24;78.71;98220.28;5113509;27;20136;-54
2022/02/17 03:56:17;;;;;;;24.60;10.13;;;;;;;1.20;79.12;98189.69;5113255;27;20050;-51
2022/02/17 03:59:08;;;;;;;15.52;7.72;;;;;;;1.16;79.52;98200.84;5083230;27;20442;-50
2022/02/17 04:01:39;;;;;;;21.08;9.48;;;;;;;1.22;79.54;98185.34;5130534;27;20062;-53
2022/02/17 04:04:09;;;;;;;21.35;8.90;;;;;;;1.25;79.42;98182.75;5112274;27;20046;-54
2022/02/17 04:06:35;;;;;;;27.05;9.52;;;;;;;1.26;79.40;98175.00;5112854;28;20047;-51
2022/02/17 04:09:03;;;;;;;21.98;10.02;;;;;;;1.28;79.63;98185.22;5129725;27;20179;-50
2022/02/17 04:11:29;;;;;;;22.77;10.10;;;;;;;1.26;79.21;98163.94;5112800;27;20043;-50
2022/02/17 04:13:54;;;;;;;23.73;9.65;;;;;;;1.24;79.01;98151.19;5112111;28;20042;-53
2022/02/17 04:16:31;;;;;;;23.77;9.43;;;;;;;1.35;78.88;98161.19;5119834;27;20559;-52
2022/02/17 04:19:12;;;;;;;24.98;10.50;;;;;;;1.29;79.35;98145.97;5108685;27;20094;-56
2022/02/17 04:21:56;;;;;;;29.17;11.93;;;;;;;1.34;79.05;98144.16;5131018;27;20067;-52
2022/02/17 04:24:41;;;;;;;22.90;9.20;;;;;;;1.39;79.02;98139.75;5131272;28;20051;-51
2022/02/17 04:27:09;;;;;;;19.35;9.38;;;;;;;1.44;78.59;98132.81;5080908;28;20039;-51
2022/02/17 04:29:35;;;;;;;24.88;10.70;;;;;;;1.45;78.64;98138.78;5095423;28;20054;-50
2022/02/17 04:32:04;;;;;;;21.60;9.23;;;;;;;1.41;78.63;98122.66;5112599;28;20043;-53
2022/02/17 04:34:30;;;;;;;19.52;8.90;;;;;;;1.44;78.68;98126.84;5112160;28;20061;-53
2022/02/17 04:37:06;;;;;;;18.25;8.52;;;;;;;1.45;78.37;98126.81;5129760;28;20043;-51
2022/02/17 04:39:33;;;;;;;23.90;10.15;;;;;;;1.41;78.69;98104.75;5101663;28;20047;-50
2022/02/17 04:42:18;;;;;;;19.00;7.75;;;;;;;1.45;78.69;98101.22;5097463;28;20557;-49
2022/02/17 04:44:45;;;;;;;23.35;10.10;;;;;;;1.51;78.35;98111.31;5108897;28;20047;-49
2022/02/17 04:47:11;;;;;;;18.20;9.00;;;;;;;1.53;78.50;98093.34;5121709;28;20046;-51
2022/02/17 04:49:36;;;;;;;21.17;8.68;;;;;;;1.51;78.72;98097.69;5112018;28;20122;-50
2022/02/17 04:52:03;;;;;;;21.50;10.30;;;;;;;1.58;78.57;98099.19;5111540;28;20058;-50
2022/02/17 04:54:29;;;;;;;23.40;8.93;;;;;;;1.70;77.87;98093.78;5112354;28;20031;-53
2022/02/17 04:56:54;;;;;;;23.98;9.73;;;;;;;1.72;77.54;98081.81;5112322;28;20129;-53
2022/02/17 04:59:21;;;;;;;19.45;8.77;;;;;;;1.78;77.80;98075.69;5128671;27;20046;-50
2022/02/17 05:01:47;;;;;;;22.17;9.10;;;;;;;1.72;77.57;98080.94;5111267;28;20062;-49
2022/02/17 05:04:34;;;;;;;19.52;9.85;;;;;;;1.72;77.49;98081.81;5130482;28;20035;-50
2022/02/17 05:07:04;;;;;;;22.17;10.05;;;;;;;1.76;77.56;98082.56;5111672;28;20134;-56
2022/02/17 05:09:31;;;;;;;19.75;9.15;;;;;;;1.73;77.71;98065.53;5127566;28;20039;-54
2022/02/17 05:11:57;;;;;;;22.25;9.85;;;;;;;1.74;77.56;98054.41;5111003;28;20150;-52
2022/02/17 05:14:25;;;;;;;25.52;9.18;;;;;;;1.76;77.67;98055.22;5111331;28;20510;-52
2022/02/17 05:16:52;;;;;;;20.27;9.63;;;;;;;1.83;77.54;98072.13;5105513;28;20040;-52
2022/02/17 05:19:19;;;;;;;15.98;8.43;;;;;;;1.82;77.18;98070.44;5114465;27;20050;-50
2022/02/17 05:21:48;;;;;;;;;;;;;;;1.87;76.89;98052.38;5114321;27;20407;-53
2022/02/17 05:24:23;;;;;;;15.15;6.72;;;;;;;1.82;76.39;98039.69;5098972;27;20475;-49
2022/02/17 05:27:08;;;;;;;15.13;7.40;;;;;;;1.88;75.73;98052.34;5101499;27;20035;-53
2022/02/17 05:29:43;;;;;;;12.30;5.75;;;;;;;1.85;75.17;98051.56;5133005;27;20421;-50
2022/02/17 05:32:24;;;;;;;17.67;7.70;;;;;;;1.87;75.13;98042.13;5114887;27;20046;-49
2022/02/17 05:35:12;;;;;;;12.95;6.05;;;;;;;1.75;74.89;98016.81;5131856;27;20142;-51
2022/02/17 05:37:56;;;;;;;11.25;5.80;;;;;;;1.95;74.69;98035.06;5098610;27;20035;-47
2022/02/17 05:40:35;;;;;;;13.77;7.53;;;;;;;1.85;74.19;98000.34;5116166;27;20055;-53
2022/02/17 05:43:01;;;;;;;11.13;5.50;;;;;;;1.91;74.16;98018.94;5133928;27;20153;-51
2022/02/17 05:45:27;;;;;;;16.10;7.55;;;;;;;1.93;74.50;98006.94;5098354;27;20042;-51
2022/02/17 05:47:54;;;;;;;15.40;6.53;;;;;;;1.94;74.21;98016.28;5098054;27;20088;-51
2022/02/17 05:50:20;;;;;;;14.10;7.50;;;;;;;1.98;74.17;98007.66;5115120;27;20156;-51
2022/02/17 05:52:49;;;;;;;16.40;7.40;;;;;;;2.03;73.88;97995.56;5116167;27;20039;-50
2022/02/17 05:55:18;;;;;;;17.65;8.25;;;;;;;2.07;73.66;97984.34;5099959;27;20281;-54
2022/02/17 05:57:44;;;;;;;16.05;7.50;;;;;;;2.21;73.45;97988.22;5133012;27;20088;-49
2022/02/17 06:00:13;;;;;;;15.05;7.15;;;;;;;2.15;73.38;97960.25;5133828;27;20035;-47
2022/02/17 06:02:41;;;;;;;16.08;8.50;;;;;;;2.23;73.35;97960.84;5118867;27;20057;-50
2022/02/17 06:05:07;;;;;;;15.82;8.25;;;;;;;2.28;73.29;97964.13;5102794;27;20042;-50
2022/02/17 06:07:33;;;;;;;14.52;7.30;;;;;;;2.30;72.71;97962.34;5138505;27;20134;-49
2022/02/17 06:09:59;;;;;;;13.43;5.85;;;;;;;2.32;72.60;97966.53;5141087;27;20041;-51
2022/02/17 06:12:25;;;;;;;19.08;7.13;;;;;;;2.29;73.01;97966.66;5120047;27;20037;-52
2022/02/17 06:14:51;;;;;;;13.07;6.93;;;;;;;2.32;72.72;97960.56;5129481;27;20088;-48
2022/02/17 06:17:18;;;;;;;15.20;7.57;;;;;;;2.38;72.56;97975.78;5116890;27;20049;-50
2022/02/17 06:19:44;;;;;;;13.60;6.05;;;;;;;2.32;72.83;97950.31;5137426;27;20505;-53
2022/02/17 06:22:10;;;;;;;13.43;6.75;;;;;;;2.36;72.56;97949.34;5138727;27;20042;-51
2022/02/17 06:24:36;;;;;;;14.25;6.97;;;;;;;2.37;72.36;97943.31;5131627;27;20043;-51
2022/02/17 06:27:02;;;;;;;16.85;7.88;;;;;;;2.35;72.40;97933.13;5131537;27;20091;-49
2022/02/17 06:29:27;;;;;;;16.15;7.95;;;;;;;2.38;72.26;97921.94;5112136;27;20571;-52
2022/02/17 06:31:54;;;;;;;14.80;7.63;;;;;;;2.48;72.15;97943.84;5130565;27;20129;-54
2022/02/17 06:34:20;;;;;;;16.48;7.57;;;;;;;2.49;72.20;97925.03;5133066;27;20087;-50
2022/02/17 06:36:46;;;;;;;18.38;8.23;;;;;;;2.46;72.07;97937.94;5133116;27;20035;-49
2022/02/17 06:39:12;;;;;;;15.90;8.38;;;;;;;2.41;72.34;97921.81;5150495;27;20513;-49
2022/02/17 06:41:38;;;;;;;17.00;8.02;;;;;;;2.47;72.03;97919.94;5134039;27;20104;-51
2022/02/17 06:44:06;;;;;;;13.35;6.53;;;;;;;2.54;71.77;97897.50;5117043;27;20041;-50
2022/02/17 06:46:34;;;;;;;13.73;6.68;;;;;;;2.51;71.91;97906.13;5096983;27;20039;-51
2022/02/17 06:49:00;;;;;;;15.20;6.70;;;;;;;2.62;71.96;97904.97;5128909;27;20415;-53
2022/02/17 06:51:27;;;;;;;14.27;7.45;;;;;;;2.61;71.73;97882.78;5108851;27;20452;-49
2022/02/17 06:53:53;;;;;;;12.55;6.43;;;;;;;2.55;71.97;97883.81;5125574;27;20027;-50
2022/02/17 06:56:21;;;;;;;15.63;7.90;;;;;;;2.58;72.19;97864.91;5131064;27;20502;-70
2022/02/17 06:58:46;;;;;;;14.65;7.13;;;;;;;2.65;71.88;97866.38;5129984;27;20160;-46
2022/02/17 07:01:13;;;;;;;14.75;7.13;;;;;;;2.61;71.77;97844.28;5113332;27;20070;-46
2022/02/17 07:03:39;;;;;;;14.88;6.55;;;;;;;2.48;71.57;97841.28;5112422;27;20152;-47
2022/02/17 07:06:05;;;;;;;11.65;5.93;;;;;;;2.61;71.86;97857.97;5127350;27;20462;-48
2022/02/17 07:08:30;;;;;;;14.68;8.25;;;;;;;2.62;72.03;97861.38;5130452;27;20030;-47
2022/02/17 07:10:56;;;;;;;12.38;6.13;;;;;;;2.51;72.19;97851.44;5112544;27;20545;-43
2022/02/17 07:13:29;;;;;;;14.65;7.90;;;;;;;2.66;71.95;97857.81;5130682;27;20039;-48
2022/02/17 07:15:55;;;;;;;13.88;7.18;;;;;;;2.70;71.56;97837.13;5119078;27;20348;-44
2022/02/17 07:18:25;;;;;;;16.15;7.55;;;;;;;2.74;71.64;97836.16;5130059;27;20491;-43
2022/02/17 07:20:53;;;;;;;15.32;7.60;;;;;;;2.73;72.00;97829.31;5130629;27;20045;-44
2022/02/17 07:23:20;;;;;;;17.05;8.30;;;;;;;2.82;71.90;97831.63;5111933;27;20096;-50
2022/02/17 07:25:46;;;;;;;15.93;8.65;;;;;;;2.88;71.55;97810.03;5112232;27;20570;-47
2022/02/17 07:28:13;;;;;;;10.45;5.55;;;;;;;2.87;71.29;97798.94;5106537;27;20040;-44
2022/02/17 07:30:41;;;;;;;17.40;7.88;;;;;;;2.85;71.47;97792.16;5129129;27;20049;-46
2022/02/17 07:33:08;;;;;;;16.67;7.68;;;;;;;2.92;71.02;97811.63;5128388;27;20038;-46
2022/02/17 07:35:34;;;;;;;15.00;7.63;;;;;;;2.75;71.38;97776.25;5129154;27;20133;-45
2022/02/17 07:37:59;;;;;;;14.32;7.30;;;;;;;2.79;71.65;97818.03;5130856;27;20131;-45
2022/02/17 07:40:25;;;;;;;15.48;7.18;;;;;;;2.65;71.49;97802.25;5110466;27;20049;-48
2022/02/17 07:42:51;;;;;;;14.52;6.40;;;;;;;2.59;72.16;97776.81;5129898;27;20041;-45
2022/02/17 07:45:18;;;;;;;13.68;6.38;;;;;;;2.71;71.93;97790.09;5128707;27;20055;-46
2022/02/17 07:47:48;;;;;;;14.73;7.35;;;;;;;2.78;72.05;97783.84;5110647;27;20039;-44
2022/02/17 07:50:17;;;;;;;12.45;7.72;;;;;;;2.77;72.34;97781.34;5129884;27;20525;-46
2022/02/17 07:52:43;;;;;;;11.83;6.23;;;;;;;2.72;72.37;97767.84;5108052;27;20046;-45
2022/02/17 07:55:10;;;;;;;13.55;7.50;;;;;;;2.63;72.79;97750.16;5109728;27;20288;-44
2022/02/17 07:57:35;;;;;;;11.25;6.25;;;;;;;2.74;72.95;97743.78;5112265;27;20069;-47
2022/02/17 08:00:02;;;;;;;14.52;6.57;;;;;;;2.76;72.40;97747.16;5130490;27;20078;-46
2022/02/17 08:02:40;;;;;;;13.50;6.50;;;;;;;2.79;72.85;97782.13;5130812;27;20408;-46
2022/02/17 08:05:06;;;;;;;15.13;6.80;;;;;;;2.78;72.92;97777.88;5131492;27;20045;-45
2022/02/17 08:07:33;;;;;;;12.15;6.68;;;;;;;2.75;73.16;97771.13;5129163;27;20062;-47
2022/02/17 08:10:00;;;;;;;13.25;7.47;;;;;;;2.79;73.16;97759.03;5128961;27;20067;-48
2022/02/17 08:12:26;;;;;;;15.73;7.50;;;;;;;2.87;73.28;97765.59;5112722;27;20553;-45
2022/02/17 08:14:51;;;;;;;15.02;6.80;;;;;;;2.86;73.20;97771.59;5130485;27;20066;-44
2022/02/17 08:17:17;;;;;;;10.90;4.85;;;;;;;2.87;73.54;97751.91;5126543;27;20081;-44
2022/02/17 08:19:43;;;;;;;14.95;7.28;;;;;;;2.94;73.47;97738.81;5110214;27;20150;-44
2022/02/17 08:22:09;;;;;;;13.95;6.15;;;;;;;2.96;73.33;97755.00;5138892;27;20530;-45
2022/02/17 08:24:34;;;;;;;10.50;5.43;;;;;;;2.91;73.71;97754.31;5139282;27;20079;-45
2022/02/17 08:27:01;;;;;;;14.02;7.53;;;;;;;2.92;73.98;97745.72;5141064;27;20035;-44
2022/02/17 08:29:31;;;;;;;18.55;7.03;;;;;;;2.96;74.18;97747.28;5120834;27;21116;-44
2022/02/17 08:31:57;;;;;;;15.40;7.93;;;;;;;2.99;74.01;97744.59;5119912;27;20587;-46
2022/02/17 08:34:23;;;;;;;15.00;7.82;;;;;;;3.03;74.00;97744.53;5137233;27;20039;-46
2022/02/17 08:36:51;;;;;;;12.23;5.63;;;;;;;3.00;74.17;97748.00;5141175;27;20115;-44
2022/02/17 08:39:17;;;;;;;13.00;6.45;;;;;;;2.94;74.63;97723.41;5122138;27;20472;-45
2022/02/17 08:41:42;;;;;;;15.60;6.00;;;;;;;2.97;74.77;97725.03;5121640;27;20031;-46
2022/02/17 08:44:08;;;;;;;17.63;8.95;;;;;;;3.05;74.81;97729.88;5140038;27;20096;-47
2022/02/17 08:46:34;;;;;;;15.63;8.20;;;;;;;3.08;74.64;97711.81;5141406;27;20043;-45
2022/02/17 08:49:00;;;;;;;19.17;7.90;;;;;;;3.18;74.46;97719.13;5138595;27;20042;-48
2022/02/17 08:51:29;;;;;;;16.60;7.70;;;;;;;3.21;74.38;97706.19;5121422;27;20035;-45
2022/02/17 08:53:57;;;;;;;15.48;8.00;;;;;;;3.27;74.55;97692.28;5139592;27;20027;-47
2022/02/17 08:56:23;;;;;;;13.57;6.45;;;;;;;3.19;74.39;97671.19;5144749;27;20160;-45
2022/02/17 08:58:50;;;;;;;18.33;8.88;;;;;;;3.26;74.77;97693.16;5143706;27;20121;-45
2022/02/17 09:01:16;;;;;;;18.10;7.32;;;;;;;3.14;74.78;97688.50;5142301;27;20038;-45
2022/02/17 09:03:43;;;;;;;12.90;5.90;;;;;;;3.25;75.37;97689.75;5144537;27;20099;-46
2022/02/17 09:06:09;;;;;;;15.65;7.18;;;;;;;3.23;75.63;97680.47;5110417;27;20046;-46
2022/02/17 09:08:35;;;;;;;15.98;7.72;;;;;;;3.15;75.61;97651.66;5144267;27;20041;-47
2022/02/17 09:11:01;;;;;;;17.52;7.43;;;;;;;3.32;75.66;97659.56;5143196;27;20030;-48
2022/02/17 09:13:27;;;;;;;16.42;7.60;;;;;;;3.29;75.90;97636.59;5142596;27;20034;-48
2022/02/17 09:15:52;;;;;;;16.67;7.95;;;;;;;3.29;76.40;97663.09;5141913;27;20171;-47
2022/02/17 09:18:18;;;;;;;18.85;8.27;;;;;;;3.31;76.54;97635.59;5133744;27;20417;-49
2022/02/17 09:20:44;;;;;;;18.13;8.80;;;;;;;3.28;76.47;97610.06;5134604;27;20053;-47
2022/02/17 09:23:10;;;;;;;14.68;6.82;;;;;;;3.46;76.06;97623.06;5132911;27;20515;-49
2022/02/17 09:25:38;;;;;;;17.83;8.80;;;;;;;3.48;75.79;97614.41;5132290;27;20103;-46
2022/02/17 09:28:05;;;;;;;16.80;8.50;;;;;;;3.57;75.97;97610.63;5132580;27;20055;-47
2022/02/17 09:30:30;;;;;;;13.77;6.65;;;;;;;3.67;75.47;97617.09;5133819;27;20418;-52
2022/02/17 09:32:56;;;;;;;12.35;7.20;;;;;;;3.70;75.46;97628.09;5132863;27;20031;-47
2022/02/17 09:35:22;;;;;;;17.33;8.63;;;;;;;3.73;75.30;97576.56;5133704;27;20047;-49
2022/02/17 09:37:48;;;;;;;18.75;9.32;;;;;;;3.97;74.46;97590.16;5133487;27;20592;-47
2022/02/17 09:40:20;;;;;;;16.13;8.57;;;;;;;4.12;74.03;97583.53;5133294;27;20091;-50
2022/02/17 09:42:46;;;;;;;18.13;8.60;;;;;;;4.06;73.25;97578.66;5123587;27;20037;-47
2022/02/17 09:45:12;;;;;;;16.67;7.85;;;;;;;4.08;73.76;97566.59;5134832;27;20039;-48
2022/02/17 09:47:39;;;;;;;11.90;7.03;;;;;;;4.03;73.44;97569.31;5128558;27;20114;-46
2022/02/17 09:50:10;;;;;;;14.15;7.50;;;;;;;4.02;73.84;97557.41;5119189;27;20092;-49
2022/02/17 09:52:37;;;;;;;14.50;7.03;;;;;;;4.08;74.11;97569.97;5132927;27;20031;-46
2022/02/17 09:55:06;;;;;;;16.45;8.07;;;;;;;4.14;73.27;97561.16;5096476;27;20054;-48
2022/02/17 09:57:32;;;;;;;14.73;6.68;;;;;;;4.19;73.44;97569.50;5125412;27;20027;-49
2022/02/17 10:00:00;;;;;;;13.88;6.45;;;;;;;4.17;73.00;97561.03;5124554;27;20506;-48
2022/02/17 10:02:26;;;;;;;18.80;8.98;;;;;;;4.23;72.86;97553.06;5144431;27;20077;-47
2022/02/17 10:04:56;;;;;;;18.38;7.55;;;;;;;4.36;73.03;97530.22;5105648;27;20079;-47
2022/02/17 10:07:33;;;;;;;17.58;8.93;;;;;;;4.27;72.02;97508.31;5124565;27;20125;-46
2022/02/17 10:10:04;;;;;;;14.75;7.70;;;;;;;4.56;72.11;97523.28;5140796;27;20039;-46
2022/02/17 10:13:01;;;;;;;12.93;7.43;;;;;;;4.63;71.22;97495.53;5123159;27;20028;-48
2022/02/17 10:15:37;;;;;;;13.75;6.80;;;;;;;4.57;71.44;97518.97;5118861;27;20142;-46
2022/02/17 10:18:14;;;;;;;18.00;8.07;;;;;;;4.56;71.26;97496.72;5134118;27;20126;-48
2022/02/17 10:21:06;;;;;;;17.45;8.10;;;;;;;4.67;71.17;97504.78;5136142;27;20051;-50
2022/02/17 10:23:46;;;;;;;17.35;7.70;;;;;;;4.73;70.13;97491.63;5118981;27;20148;-53
2022/02/17 10:26:20;;;;;;;11.60;6.63;;;;;;;4.73;70.43;97494.22;5134895;27;20052;-48
2022/02/17 10:28:57;;;;;;;16.05;8.52;;;;;;;4.76;70.02;97464.94;5133254;27;20596;-50
2022/02/17 10:31:37;;;;;;;12.35;6.30;;;;;;;4.79;69.69;97463.03;5112954;27;20047;-49
2022/02/17 10:34:03;;;;;;;;;;;;;;;5.02;69.46;97460.22;5133056;27;20030;-50
2022/02/17 10:36:36;;;;;;;15.75;7.57;;;;;;;5.16;68.55;97433.81;5136608;27;19915;-50
2022/02/17 10:39:12;;;;;;;12.27;6.97;;;;;;;5.26;67.82;97435.03;5133706;27;20058;-49
2022/02/17 10:41:49;;;;;;;13.52;7.35;;;;;;;5.33;67.48;97409.81;5135677;27;20371;-51
2022/02/17 10:44:15;;;;;;;16.13;6.30;;;;;;;5.51;66.64;97416.59;5129063;27;20509;-51
2022/02/17 10:46:41;;;;;;;16.70;7.85;;;;;;;5.49;66.89;97411.53;5118260;27;20047;-49
2022/02/17 10:49:15;;;;;;;17.40;8.60;;;;;;;5.43;66.72;97413.59;5137041;27;20590;-50
2022/02/17 10:51:41;;;;;;;13.50;8.02;;;;;;;5.30;67.23;97417.66;5119440;27;20043;-50
2022/02/17 10:54:08;;;;;;;16.17;8.32;;;;;;;5.46;66.74;97392.81;5117899;27;20031;-52
2022/02/17 10:56:35;;;;;;;16.73;7.97;;;;;;;5.63;66.04;97387.63;5118851;27;20127;-52
2022/02/17 10:59:03;;;;;;;14.88;8.10;;;;;;;5.89;65.96;97368.28;5132870;27;20043;-50
2022/02/17 11:01:29;;;;;;;14.55;6.93;;;;;;;6.33;63.30;97405.41;5108180;27;20256;-48
2022/02/17 11:03:55;;;;;;;11.93;6.43;;;;;;;6.52;63.28;97399.28;5123842;27;20043;-54
2022/02/17 11:06:21;;;;;;;16.38;9.02;;;;;;;6.45;62.91;97361.81;5133145;27;20111;-52
2022/02/17 11:08:49;;;;;;;17.73;8.65;;;;;;;6.51;62.84;97344.25;5144960;27;20091;-51
2022/02/17 11:11:16;;;;;;;15.60;7.80;;;;;;;6.42;62.90;97326.69;5126622;27;20095;-51
2022/02/17 11:13:50;;;;;;;17.00;8.02;;;;;;;6.24;63.31;97327.69;5108044;27;20775;-48
2022/02/17 11:16:20;;;;;;;17.98;8.10;;;;;;;6.02;63.74;97320.28;5121613;27;20526;-49
2022/02/17 11:18:46;;;;;;;15.77;8.32;;;;;;;5.87;64.53;97305.63;5107951;27;20051;-53
2022/02/17 11:21:16;;;;;;;15.43;8.15;;;;;;;5.90;64.29;97319.22;5108323;27;20035;-52
2022/02/17 11:23:43;;;;;;;18.13;8.73;;;;;;;5.68;64.52;97292.03;5126569;27;20057;-48
2022/02/17 11:26:24;;;;;;;16.55;7.82;;;;;;;5.48;65.78;97314.53;5126628;27;20047;-50
2022/02/17 11:28:50;;;;;;;18.13;8.77;;;;;;;5.48;65.68;97317.13;5129401;27;20665;-50
2022/02/17 11:31:16;;;;;;;14.88;7.70;;;;;;;5.45;66.29;97313.84;5132789;27;20046;-50
2022/02/17 11:33:53;;;;;;;16.73;8.82;;;;;;;5.35;65.83;97313.50;5132164;27;20039;-49
2022/02/17 11:36:24;;;;;;;16.27;7.75;;;;;;;5.25;66.34;97319.19;5125405;27;20043;-53
2022/02/17 11:38:57;;;;;;;13.63;7.25;;;;;;;5.17;67.06;97300.72;5120638;27;20096;-53